KOLF/OLF METAR and TAF weather

Enter ICAO airport designator
Station Type Date Time Source
KOLF METAR 2020/09/28 09:53 UTC NOAA

KOLF 280953Z AUTO 23006KT 10SM CLR 03/M01 A3029 RMK AO2 SLP265 T00281006


Station Type Date Time Source
KOLF Decoded METAR 2020/09/28 09:53 UTC NOAA

WOLF POINT CLAYTON AIRPORT, MT, United States (KOLF) 48-06N 105-35W 604M
Sep 28, 2020 - 05:53 AM EDT / 2020.09.28 0953 UTC
Wind: from the SW (230 degrees) at 7 MPH (6 KT):0
Visibility: 10 mile(s):0
Sky conditions: clear
Temperature: 37.0 F (2.8 C)
Dew Point: 30.9 F (-0.6 C)
Relative Humidity: 78%
Pressure (altimeter): 30.29 in. Hg (1025 hPa)
ob: KOLF 280953Z AUTO 23006KT 10SM CLR 03/M01 A3029 RMK AO2 SLP265 T00281006
cycle: 10

Station Type Date Time Source
KOLF TAF 2020/09/28 06:22 UTC NOAA

TAF KOLF 280520Z 2806/2906 31007KT P6SM SKC
FM280900 VRB06KT P6SM SKC
FM281800 28010G18KT P6SM FEW150
AMD NOT SKED 2806/2809

Example: see airport list